sensor_id;sensor_type;location;lat;lon;timestamp;temperature;humidity
1468;DHT22;727;48.892;9.544;2024-03-08T00:02:17;2.50;99.90
1468;DHT22;727;48.892;9.544;2024-03-08T00:04:44;2.50;99.90
1468;DHT22;727;48.892;9.544;2024-03-08T00:07:11;2.50;99.90
1468;DHT22;727;48.892;9.544;2024-03-08T00:09:38;2.40;99.90
1468;DHT22;727;48.892;9.544;2024-03-08T00:12:07;2.40;99.90
1468;DHT22;727;48.892;9.544;2024-03-08T00:14:34;2.40;99.90
1468;DHT22;727;48.892;9.544;2024-03-08T00:17:02;2.40;99.90
1468;DHT22;727;48.892;9.544;2024-03-08T00:19:29;2.50;99.90
1468;DHT22;727;48.892;9.544;2024-03-08T00:21:56;2.60;99.90
1468;DHT22;727;48.892;9.544;2024-03-08T00:24:22;2.70;99.90
1468;DHT22;727;48.892;9.544;2024-03-08T00:26:50;2.80;99.90
1468;DHT22;727;48.892;9.544;2024-03-08T00:29:18;2.90;99.90
1468;DHT22;727;48.892;9.544;2024-03-08T00:31:45;2.90;99.90
1468;DHT22;727;48.892;9.544;2024-03-08T00:34:11;2.90;99.90
1468;DHT22;727;48.892;9.544;2024-03-08T00:36:38;2.90;99.90
1468;DHT22;727;48.892;9.544;2024-03-08T00:39:05;2.90;99.90
1468;DHT22;727;48.892;9.544;2024-03-08T00:41:32;2.90;99.90
1468;DHT22;727;48.892;9.544;2024-03-08T00:43:59;3.00;99.90
1468;DHT22;727;48.892;9.544;2024-03-08T00:46:27;3.00;99.90
1468;DHT22;727;48.892;9.544;2024-03-08T00:48:54;3.00;99.90
1468;DHT22;727;48.892;9.544;2024-03-08T00:51:22;3.00;99.90
1468;DHT22;727;48.892;9.544;2024-03-08T00:53:48;3.00;99.90
1468;DHT22;727;48.892;9.544;2024-03-08T00:56:15;3.00;99.90
1468;DHT22;727;48.892;9.544;2024-03-08T00:58:41;3.00;99.90
1468;DHT22;727;48.892;9.544;2024-03-08T01:01:08;2.90;99.90
1468;DHT22;727;48.892;9.544;2024-03-08T01:03:37;3.00;99.90
1468;DHT22;727;48.892;9.544;2024-03-08T01:06:04;2.90;99.90
1468;DHT22;727;48.892;9.544;2024-03-08T01:08:30;2.90;99.90
1468;DHT22;727;48.892;9.544;2024-03-08T01:10:57;2.90;99.90
1468;DHT22;727;48.892;9.544;2024-03-08T01:13:26;2.90;99.90
1468;DHT22;727;48.892;9.544;2024-03-08T01:15:57;2.80;99.90
1468;DHT22;727;48.892;9.544;2024-03-08T01:18:28;2.80;99.90
1468;DHT22;727;48.892;9.544;2024-03-08T01:20:57;2.90;99.90
1468;DHT22;727;48.892;9.544;2024-03-08T01:23:24;2.80;99.90
1468;DHT22;727;48.892;9.544;2024-03-08T01:25:51;2.90;99.90
1468;DHT22;727;48.892;9.544;2024-03-08T01:28:24;2.80;99.90
1468;DHT22;727;48.892;9.544;2024-03-08T01:30:51;2.70;99.90
1468;DHT22;727;48.892;9.544;2024-03-08T01:33:22;2.70;99.90
1468;DHT22;727;48.892;9.544;2024-03-08T01:35:49;2.80;99.90
1468;DHT22;727;48.892;9.544;2024-03-08T01:38:16;2.80;99.90
1468;DHT22;727;48.892;9.544;2024-03-08T01:40:43;2.80;99.90
1468;DHT22;727;48.892;9.544;2024-03-08T01:43:19;2.70;99.90
1468;DHT22;727;48.892;9.544;2024-03-08T01:45:46;2.70;99.90
1468;DHT22;727;48.892;9.544;2024-03-08T01:48:14;2.70;99.90
1468;DHT22;727;48.892;9.544;2024-03-08T01:50:42;2.70;99.90
1468;DHT22;727;48.892;9.544;2024-03-08T01:53:09;2.70;99.90
1468;DHT22;727;48.892;9.544;2024-03-08T01:55:39;2.60;99.90
1468;DHT22;727;48.892;9.544;2024-03-08T01:58:06;2.70;99.90
1468;DHT22;727;48.892;9.544;2024-03-08T02:00:33;2.70;99.90
1468;DHT22;727;48.892;9.544;2024-03-08T02:03:01;2.60;99.90
1468;DHT22;727;48.892;9.544;2024-03-08T02:05:29;2.70;99.90
1468;DHT22;727;48.892;9.544;2024-03-08T02:07:56;2.60;99.90
1468;DHT22;727;48.892;9.544;2024-03-08T02:10:23;2.50;99.90
1468;DHT22;727;48.892;9.544;2024-03-08T02:12:51;2.50;99.90
1468;DHT22;727;48.892;9.544;2024-03-08T02:15:18;2.50;99.90
1468;DHT22;727;48.892;9.544;2024-03-08T02:17:45;2.30;99.90
1468;DHT22;727;48.892;9.544;2024-03-08T02:20:11;2.30;99.90
1468;DHT22;727;48.892;9.544;2024-03-08T02:22:40;2.30;99.90
1468;DHT22;727;48.892;9.544;2024-03-08T02:25:08;2.30;99.90
1468;DHT22;727;48.892;9.544;2024-03-08T02:27:35;2.20;99.90
1468;DHT22;727;48.892;9.544;2024-03-08T02:30:01;2.20;99.90
1468;DHT22;727;48.892;9.544;2024-03-08T02:32:28;2.20;99.90
1468;DHT22;727;48.892;9.544;2024-03-08T02:34:56;2.30;99.90
1468;DHT22;727;48.892;9.544;2024-03-08T02:37:25;2.30;99.90
1468;DHT22;727;48.892;9.544;2024-03-08T02:43:06;2.40;99.90
1468;DHT22;727;48.892;9.544;2024-03-08T02:45:34;2.40;99.90
1468;DHT22;727;48.892;9.544;2024-03-08T02:48:00;2.40;99.90
1468;DHT22;727;48.892;9.544;2024-03-08T02:50:27;2.40;99.90
1468;DHT22;727;48.892;9.544;2024-03-08T02:52:54;2.40;99.90
1468;DHT22;727;48.892;9.544;2024-03-08T02:55:20;2.40;99.90
1468;DHT22;727;48.892;9.544;2024-03-08T02:57:47;2.30;99.90
1468;DHT22;727;48.892;9.544;2024-03-08T03:00:15;2.30;99.90
1468;DHT22;727;48.892;9.544;2024-03-08T03:02:44;2.30;99.90
1468;DHT22;727;48.892;9.544;2024-03-08T03:05:11;2.30;99.90
1468;DHT22;727;48.892;9.544;2024-03-08T03:07:38;2.30;99.90
1468;DHT22;727;48.892;9.544;2024-03-08T03:10:06;2.30;99.90
1468;DHT22;727;48.892;9.544;2024-03-08T03:12:33;2.30;99.90
1468;DHT22;727;48.892;9.544;2024-03-08T03:15:00;2.40;99.90
1468;DHT22;727;48.892;9.544;2024-03-08T03:17:28;2.30;99.90
1468;DHT22;727;48.892;9.544;2024-03-08T03:19:55;2.30;99.90
1468;DHT22;727;48.892;9.544;2024-03-08T03:22:22;2.10;99.90
1468;DHT22;727;48.892;9.544;2024-03-08T03:24:48;2.00;99.90
1468;DHT22;727;48.892;9.544;2024-03-08T03:27:17;2.00;99.90
1468;DHT22;727;48.892;9.544;2024-03-08T03:29:45;1.90;99.90
1468;DHT22;727;48.892;9.544;2024-03-08T03:32:12;2.10;99.90
1468;DHT22;727;48.892;9.544;2024-03-08T03:34:41;2.10;99.90
1468;DHT22;727;48.892;9.544;2024-03-08T03:37:09;2.10;99.90
1468;DHT22;727;48.892;9.544;2024-03-08T03:39:37;2.00;99.90
1468;DHT22;727;48.892;9.544;2024-03-08T03:42:14;2.00;99.90
1468;DHT22;727;48.892;9.544;2024-03-08T03:44:41;2.00;99.90
1468;DHT22;727;48.892;9.544;2024-03-08T03:47:08;2.00;99.90
1468;DHT22;727;48.892;9.544;2024-03-08T03:49:35;2.00;99.90
1468;DHT22;727;48.892;9.544;2024-03-08T03:52:04;2.10;99.90
1468;DHT22;727;48.892;9.544;2024-03-08T03:54:31;2.10;99.90
1468;DHT22;727;48.892;9.544;2024-03-08T03:56:58;2.10;99.90
1468;DHT22;727;48.892;9.544;2024-03-08T03:59:26;2.10;99.90
1468;DHT22;727;48.892;9.544;2024-03-08T04:01:52;2.20;99.90
1468;DHT22;727;48.892;9.544;2024-03-08T04:04:19;2.10;99.90
1468;DHT22;727;48.892;9.544;2024-03-08T04:06:46;2.10;99.90
1468;DHT22;727;48.892;9.544;2024-03-08T04:09:14;2.20;99.90
1468;DHT22;727;48.892;9.544;2024-03-08T04:11:41;2.20;99.90
1468;DHT22;727;48.892;9.544;2024-03-08T04:14:08;2.20;99.90
1468;DHT22;727;48.892;9.544;2024-03-08T04:16:34;2.10;99.90
1468;DHT22;727;48.892;9.544;2024-03-08T04:19:01;2.00;99.90
1468;DHT22;727;48.892;9.544;2024-03-08T04:21:30;2.00;99.90
1468;DHT22;727;48.892;9.544;2024-03-08T04:23:57;2.00;99.90
1468;DHT22;727;48.892;9.544;2024-03-08T04:26:25;1.90;99.90
1468;DHT22;727;48.892;9.544;2024-03-08T04:28:51;1.80;99.90
1468;DHT22;727;48.892;9.544;2024-03-08T04:31:18;1.70;99.90
1468;DHT22;727;48.892;9.544;2024-03-08T04:33:45;1.70;99.90
1468;DHT22;727;48.892;9.544;2024-03-08T04:36:11;1.60;99.90
1468;DHT22;727;48.892;9.544;2024-03-08T04:38:39;1.50;99.90
1468;DHT22;727;48.892;9.544;2024-03-08T04:41:06;1.40;99.90
1468;DHT22;727;48.892;9.544;2024-03-08T04:43:35;1.40;99.90
1468;DHT22;727;48.892;9.544;2024-03-08T04:46:01;1.30;99.90
1468;DHT22;727;48.892;9.544;2024-03-08T04:48:29;1.30;99.90
1468;DHT22;727;48.892;9.544;2024-03-08T04:50:56;1.20;99.90
1468;DHT22;727;48.892;9.544;2024-03-08T04:53:22;1.30;99.90
1468;DHT22;727;48.892;9.544;2024-03-08T04:55:49;1.40;99.90
1468;DHT22;727;48.892;9.544;2024-03-08T04:58:15;1.30;99.90
1468;DHT22;727;48.892;9.544;2024-03-08T05:00:44;1.50;99.90
1468;DHT22;727;48.892;9.544;2024-03-08T05:03:10;1.60;99.90
1468;DHT22;727;48.892;9.544;2024-03-08T05:05:37;1.60;99.90
1468;DHT22;727;48.892;9.544;2024-03-08T05:08:04;1.60;99.90
1468;DHT22;727;48.892;9.544;2024-03-08T05:10:31;1.50;99.90
1468;DHT22;727;48.892;9.544;2024-03-08T05:12:58;1.40;99.90
1468;DHT22;727;48.892;9.544;2024-03-08T05:15:24;1.40;99.90
1468;DHT22;727;48.892;9.544;2024-03-08T05:17:52;1.40;99.90
1468;DHT22;727;48.892;9.544;2024-03-08T05:20:21;1.30;99.90
1468;DHT22;727;48.892;9.544;2024-03-08T05:22:48;1.40;99.90
1468;DHT22;727;48.892;9.544;2024-03-08T05:25:14;1.50;99.90
1468;DHT22;727;48.892;9.544;2024-03-08T05:27:41;1.40;99.90
1468;DHT22;727;48.892;9.544;2024-03-08T05:30:08;1.30;99.90
1468;DHT22;727;48.892;9.544;2024-03-08T05:32:40;1.40;99.90
1468;DHT22;727;48.892;9.544;2024-03-08T05:35:11;1.50;99.90
1468;DHT22;727;48.892;9.544;2024-03-08T05:37:37;1.60;99.90
1468;DHT22;727;48.892;9.544;2024-03-08T05:40:05;1.70;99.90
1468;DHT22;727;48.892;9.544;2024-03-08T05:42:34;1.70;99.90
1468;DHT22;727;48.892;9.544;2024-03-08T05:45:01;1.60;99.90
1468;DHT22;727;48.892;9.544;2024-03-08T05:47:28;1.50;99.90
1468;DHT22;727;48.892;9.544;2024-03-08T05:49:55;1.40;99.90
1468;DHT22;727;48.892;9.544;2024-03-08T05:52:23;1.60;99.90
1468;DHT22;727;48.892;9.544;2024-03-08T05:54:51;1.60;99.90
1468;DHT22;727;48.892;9.544;2024-03-08T05:57:18;1.60;99.90
1468;DHT22;727;48.892;9.544;2024-03-08T05:59:44;1.60;99.90
1468;DHT22;727;48.892;9.544;2024-03-08T06:02:11;1.50;99.90
1468;DHT22;727;48.892;9.544;2024-03-08T06:04:41;1.60;99.90
1468;DHT22;727;48.892;9.544;2024-03-08T06:07:08;1.50;99.90
1468;DHT22;727;48.892;9.544;2024-03-08T06:09:39;1.50;99.90
1468;DHT22;727;48.892;9.544;2024-03-08T06:12:05;1.60;99.90
1468;DHT22;727;48.892;9.544;2024-03-08T06:14:32;1.60;99.90
1468;DHT22;727;48.892;9.544;2024-03-08T06:16:59;1.70;99.90
1468;DHT22;727;48.892;9.544;2024-03-08T06:19:26;1.70;99.90
1468;DHT22;727;48.892;9.544;2024-03-08T06:21:52;1.80;99.90
1468;DHT22;727;48.892;9.544;2024-03-08T06:24:19;1.90;99.90
1468;DHT22;727;48.892;9.544;2024-03-08T06:26:47;1.90;99.90
1468;DHT22;727;48.892;9.544;2024-03-08T06:29:14;2.00;99.90
1468;DHT22;727;48.892;9.544;2024-03-08T06:31:40;2.10;99.90
1468;DHT22;727;48.892;9.544;2024-03-08T06:34:07;2.20;99.90
1468;DHT22;727;48.892;9.544;2024-03-08T06:36:34;2.30;99.90
1468;DHT22;727;48.892;9.544;2024-03-08T06:39:03;2.50;99.90
1468;DHT22;727;48.892;9.544;2024-03-08T06:41:34;2.70;99.90
1468;DHT22;727;48.892;9.544;2024-03-08T06:44:03;2.90;99.90
1468;DHT22;727;48.892;9.544;2024-03-08T06:46:29;3.40;99.90
1468;DHT22;727;48.892;9.544;2024-03-08T06:48:56;4.30;99.90
1468;DHT22;727;48.892;9.544;2024-03-08T06:51:23;5.30;99.90
1468;DHT22;727;48.892;9.544;2024-03-08T06:53:49;6.40;99.90
1468;DHT22;727;48.892;9.544;2024-03-08T06:56:18;7.10;99.90
1468;DHT22;727;48.892;9.544;2024-03-08T06:58:45;6.90;99.90
1468;DHT22;727;48.892;9.544;2024-03-08T07:01:13;6.50;99.90
1468;DHT22;727;48.892;9.544;2024-03-08T07:03:41;6.20;99.90
1468;DHT22;727;48.892;9.544;2024-03-08T07:06:09;6.30;99.90
1468;DHT22;727;48.892;9.544;2024-03-08T07:08:36;6.20;99.90
1468;DHT22;727;48.892;9.544;2024-03-08T07:11:03;6.00;99.90
1468;DHT22;727;48.892;9.544;2024-03-08T07:13:30;5.80;99.90
1468;DHT22;727;48.892;9.544;2024-03-08T07:15:57;5.60;99.90
1468;DHT22;727;48.892;9.544;2024-03-08T07:18:27;5.50;99.90
1468;DHT22;727;48.892;9.544;2024-03-08T07:20:55;5.30;99.90
1468;DHT22;727;48.892;9.544;2024-03-08T07:23:21;5.20;99.90
1468;DHT22;727;48.892;9.544;2024-03-08T07:26:02;5.00;99.90
1468;DHT22;727;48.892;9.544;2024-03-08T07:28:29;5.00;99.90
1468;DHT22;727;48.892;9.544;2024-03-08T07:30:57;4.90;99.90
1468;DHT22;727;48.892;9.544;2024-03-08T07:33:39;4.80;99.90
1468;DHT22;727;48.892;9.544;2024-03-08T07:36:06;4.70;99.90
1468;DHT22;727;48.892;9.544;2024-03-08T07:38:32;4.70;99.90
1468;DHT22;727;48.892;9.544;2024-03-08T07:41:00;4.70;99.90
1468;DHT22;727;48.892;9.544;2024-03-08T07:43:26;4.70;99.90
1468;DHT22;727;48.892;9.544;2024-03-08T07:45:59;4.70;99.90
1468;DHT22;727;48.892;9.544;2024-03-08T07:48:26;4.70;99.90
1468;DHT22;727;48.892;9.544;2024-03-08T07:50:54;4.70;99.90
1468;DHT22;727;48.892;9.544;2024-03-08T07:53:20;4.70;99.90
1468;DHT22;727;48.892;9.544;2024-03-08T07:55:47;4.80;99.90
1468;DHT22;727;48.892;9.544;2024-03-08T07:58:14;4.80;99.90
1468;DHT22;727;48.892;9.544;2024-03-08T08:00:40;4.90;99.90
1468;DHT22;727;48.892;9.544;2024-03-08T08:03:08;4.90;99.90
1468;DHT22;727;48.892;9.544;2024-03-08T08:05:35;4.80;99.90
1468;DHT22;727;48.892;9.544;2024-03-08T08:08:05;4.90;99.90
1468;DHT22;727;48.892;9.544;2024-03-08T08:10:35;4.90;99.90
1468;DHT22;727;48.892;9.544;2024-03-08T08:13:02;4.90;99.90
1468;DHT22;727;48.892;9.544;2024-03-08T08:15:29;5.00;99.90
1468;DHT22;727;48.892;9.544;2024-03-08T08:17:56;5.10;99.90
1468;DHT22;727;48.892;9.544;2024-03-08T08:20:23;5.10;99.90
1468;DHT22;727;48.892;9.544;2024-03-08T08:22:51;5.20;99.90
1468;DHT22;727;48.892;9.544;2024-03-08T08:25:21;5.20;99.90
1468;DHT22;727;48.892;9.544;2024-03-08T08:27:49;5.30;99.90
1468;DHT22;727;48.892;9.544;2024-03-08T08:30:16;5.40;99.90
1468;DHT22;727;48.892;9.544;2024-03-08T08:32:43;5.50;99.90
1468;DHT22;727;48.892;9.544;2024-03-08T08:35:10;5.50;99.90
1468;DHT22;727;48.892;9.544;2024-03-08T08:37:38;5.50;99.90
1468;DHT22;727;48.892;9.544;2024-03-08T08:40:06;5.50;99.90
1468;DHT22;727;48.892;9.544;2024-03-08T08:42:37;5.60;99.90
1468;DHT22;727;48.892;9.544;2024-03-08T08:45:04;5.70;99.90
1468;DHT22;727;48.892;9.544;2024-03-08T08:47:33;5.70;99.90
1468;DHT22;727;48.892;9.544;2024-03-08T08:50:00;5.70;99.90
1468;DHT22;727;48.892;9.544;2024-03-08T08:52:27;5.60;99.90
1468;DHT22;727;48.892;9.544;2024-03-08T08:54:54;5.60;99.90
1468;DHT22;727;48.892;9.544;2024-03-08T08:57:22;5.60;99.90
1468;DHT22;727;48.892;9.544;2024-03-08T08:59:50;5.70;99.90
1468;DHT22;727;48.892;9.544;2024-03-08T09:02:16;5.70;99.90
1468;DHT22;727;48.892;9.544;2024-03-08T09:04:46;5.80;99.90
1468;DHT22;727;48.892;9.544;2024-03-08T09:07:13;5.90;99.90
1468;DHT22;727;48.892;9.544;2024-03-08T09:09:41;5.90;99.90
1468;DHT22;727;48.892;9.544;2024-03-08T09:12:08;5.90;99.90
1468;DHT22;727;48.892;9.544;2024-03-08T09:14:37;5.90;99.90
1468;DHT22;727;48.892;9.544;2024-03-08T09:17:05;6.00;99.90
1468;DHT22;727;48.892;9.544;2024-03-08T09:19:33;5.90;99.90
1468;DHT22;727;48.892;9.544;2024-03-08T09:22:00;6.00;99.90
1468;DHT22;727;48.892;9.544;2024-03-08T09:24:29;6.30;99.90
1468;DHT22;727;48.892;9.544;2024-03-08T09:26:56;6.50;99.90
1468;DHT22;727;48.892;9.544;2024-03-08T09:29:24;6.60;99.90
1468;DHT22;727;48.892;9.544;2024-03-08T09:31:50;6.70;99.90
1468;DHT22;727;48.892;9.544;2024-03-08T09:34:18;6.70;99.80
1468;DHT22;727;48.892;9.544;2024-03-08T09:36:45;6.80;99.40
1468;DHT22;727;48.892;9.544;2024-03-08T09:39:12;6.70;99.40
1468;DHT22;727;48.892;9.544;2024-03-08T09:41:42;6.50;99.40
1468;DHT22;727;48.892;9.544;2024-03-08T09:44:09;6.50;99.50
1468;DHT22;727;48.892;9.544;2024-03-08T09:46:36;6.50;99.40
1468;DHT22;727;48.892;9.544;2024-03-08T09:49:02;6.70;99.40
1468;DHT22;727;48.892;9.544;2024-03-08T09:51:34;6.70;98.90
1468;DHT22;727;48.892;9.544;2024-03-08T09:54:01;6.80;98.80
1468;DHT22;727;48.892;9.544;2024-03-08T09:56:32;6.70;98.60
1468;DHT22;727;48.892;9.544;2024-03-08T09:58:59;7.00;98.80
1468;DHT22;727;48.892;9.544;2024-03-08T10:02:07;7.20;98.60
1468;DHT22;727;48.892;9.544;2024-03-08T10:04:34;7.80;98.00
1468;DHT22;727;48.892;9.544;2024-03-08T10:07:02;8.30;97.10
1468;DHT22;727;48.892;9.544;2024-03-08T10:09:29;9.50;96.70
1468;DHT22;727;48.892;9.544;2024-03-08T10:11:56;11.10;93.70
1468;DHT22;727;48.892;9.544;2024-03-08T10:14:23;12.40;89.50
1468;DHT22;727;48.892;9.544;2024-03-08T10:16:52;12.90;85.10
1468;DHT22;727;48.892;9.544;2024-03-08T10:19:18;13.60;82.70
1468;DHT22;727;48.892;9.544;2024-03-08T10:21:48;14.80;78.60
1468;DHT22;727;48.892;9.544;2024-03-08T10:24:17;16.50;74.00
1468;DHT22;727;48.892;9.544;2024-03-08T10:26:44;17.20;68.40
1468;DHT22;727;48.892;9.544;2024-03-08T10:29:11;17.20;66.80
1468;DHT22;727;48.892;9.544;2024-03-08T10:31:43;17.20;66.20
1468;DHT22;727;48.892;9.544;2024-03-08T10:34:09;17.40;64.70
1468;DHT22;727;48.892;9.544;2024-03-08T10:36:36;16.90;65.20
1468;DHT22;727;48.892;9.544;2024-03-08T10:39:07;17.30;65.40
1468;DHT22;727;48.892;9.544;2024-03-08T10:41:39;17.90;63.80
1468;DHT22;727;48.892;9.544;2024-03-08T10:44:15;17.50;62.60
1468;DHT22;727;48.892;9.544;2024-03-08T10:46:58;17.40;61.50
1468;DHT22;727;48.892;9.544;2024-03-08T10:49:30;16.70;62.60
1468;DHT22;727;48.892;9.544;2024-03-08T10:52:02;16.60;64.60
1468;DHT22;727;48.892;9.544;2024-03-08T10:54:30;16.60;63.70
1468;DHT22;727;48.892;9.544;2024-03-08T10:56:59;16.80;63.50
1468;DHT22;727;48.892;9.544;2024-03-08T10:59:29;17.30;62.70
1468;DHT22;727;48.892;9.544;2024-03-08T11:01:57;17.60;62.00
1468;DHT22;727;48.892;9.544;2024-03-08T11:04:23;17.60;60.40
1468;DHT22;727;48.892;9.544;2024-03-08T11:06:51;17.50;61.30
1468;DHT22;727;48.892;9.544;2024-03-08T11:09:29;17.70;61.30
1468;DHT22;727;48.892;9.544;2024-03-08T11:12:23;16.90;62.50
1468;DHT22;727;48.892;9.544;2024-03-08T11:14:52;16.80;63.50
1468;DHT22;727;48.892;9.544;2024-03-08T11:17:42;16.50;63.70
1468;DHT22;727;48.892;9.544;2024-03-08T11:20:12;17.10;62.20
1468;DHT22;727;48.892;9.544;2024-03-08T11:22:42;17.30;61.10
1468;DHT22;727;48.892;9.544;2024-03-08T11:25:35;17.30;61.80
1468;DHT22;727;48.892;9.544;2024-03-08T11:28:11;18.00;60.80
1468;DHT22;727;48.892;9.544;2024-03-08T11:30:42;18.30;59.20
1468;DHT22;727;48.892;9.544;2024-03-08T11:33:11;18.70;57.70
1468;DHT22;727;48.892;9.544;2024-03-08T11:35:39;18.00;58.20
1468;DHT22;727;48.892;9.544;2024-03-08T11:38:07;17.70;58.80
1468;DHT22;727;48.892;9.544;2024-03-08T11:40:34;18.30;58.70
1468;DHT22;727;48.892;9.544;2024-03-08T11:43:01;18.60;58.20
1468;DHT22;727;48.892;9.544;2024-03-08T11:45:34;18.80;57.50
1468;DHT22;727;48.892;9.544;2024-03-08T11:48:02;19.00;56.90
1468;DHT22;727;48.892;9.544;2024-03-08T11:50:30;18.00;57.30
1468;DHT22;727;48.892;9.544;2024-03-08T11:53:01;17.60;58.10
1468;DHT22;727;48.892;9.544;2024-03-08T11:55:28;18.00;58.20
1468;DHT22;727;48.892;9.544;2024-03-08T11:58:00;18.70;56.20
1468;DHT22;727;48.892;9.544;2024-03-08T12:00:27;18.60;56.10
1468;DHT22;727;48.892;9.544;2024-03-08T12:03:06;17.80;57.50
1468;DHT22;727;48.892;9.544;2024-03-08T12:05:33;18.40;57.90
1468;DHT22;727;48.892;9.544;2024-03-08T12:08:00;18.20;57.60
1468;DHT22;727;48.892;9.544;2024-03-08T12:10:27;17.50;58.30
1468;DHT22;727;48.892;9.544;2024-03-08T12:12:56;17.90;59.30
1468;DHT22;727;48.892;9.544;2024-03-08T12:15:25;18.10;58.00
1468;DHT22;727;48.892;9.544;2024-03-08T12:17:54;19.20;57.10
1468;DHT22;727;48.892;9.544;2024-03-08T12:20:23;19.20;55.80
1468;DHT22;727;48.892;9.544;2024-03-08T12:22:51;18.80;56.70
1468;DHT22;727;48.892;9.544;2024-03-08T12:25:19;18.00;57.60
1468;DHT22;727;48.892;9.544;2024-03-08T12:27:46;17.60;58.70
1468;DHT22;727;48.892;9.544;2024-03-08T12:30:21;17.80;58.90
1468;DHT22;727;48.892;9.544;2024-03-08T12:32:52;18.00;58.00
1468;DHT22;727;48.892;9.544;2024-03-08T12:35:21;18.30;58.00
1468;DHT22;727;48.892;9.544;2024-03-08T12:37:50;18.10;57.60
1468;DHT22;727;48.892;9.544;2024-03-08T12:40:17;17.90;57.00
1468;DHT22;727;48.892;9.544;2024-03-08T12:42:44;17.20;58.00
1468;DHT22;727;48.892;9.544;2024-03-08T12:45:13;17.10;58.80
1468;DHT22;727;48.892;9.544;2024-03-08T12:47:40;16.80;59.70
1468;DHT22;727;48.892;9.544;2024-03-08T12:50:08;16.50;59.20
1468;DHT22;727;48.892;9.544;2024-03-08T12:52:36;16.70;59.70
1468;DHT22;727;48.892;9.544;2024-03-08T12:55:03;17.70;58.60
1468;DHT22;727;48.892;9.544;2024-03-08T12:57:32;18.40;58.40
1468;DHT22;727;48.892;9.544;2024-03-08T13:00:00;18.20;56.90
1468;DHT22;727;48.892;9.544;2024-03-08T13:02:27;18.70;56.70
1468;DHT22;727;48.892;9.544;2024-03-08T13:04:53;19.20;55.50
1468;DHT22;727;48.892;9.544;2024-03-08T13:07:23;19.40;54.90
1468;DHT22;727;48.892;9.544;2024-03-08T13:09:52;19.10;55.60
1468;DHT22;727;48.892;9.544;2024-03-08T13:12:19;17.90;56.80
1468;DHT22;727;48.892;9.544;2024-03-08T13:14:46;18.10;57.20
1468;DHT22;727;48.892;9.544;2024-03-08T13:17:13;17.10;57.50
1468;DHT22;727;48.892;9.544;2024-03-08T13:19:40;17.40;57.70
1468;DHT22;727;48.892;9.544;2024-03-08T13:22:07;17.70;57.80
1468;DHT22;727;48.892;9.544;2024-03-08T13:24:37;17.60;57.60
1468;DHT22;727;48.892;9.544;2024-03-08T13:27:05;17.60;58.10
1468;DHT22;727;48.892;9.544;2024-03-08T13:29:42;18.00;57.60
1468;DHT22;727;48.892;9.544;2024-03-08T13:32:09;17.80;56.10
1468;DHT22;727;48.892;9.544;2024-03-08T13:34:37;17.70;57.40
1468;DHT22;727;48.892;9.544;2024-03-08T13:37:04;17.80;58.10
1468;DHT22;727;48.892;9.544;2024-03-08T13:39:31;17.40;58.90
1468;DHT22;727;48.892;9.544;2024-03-08T13:42:07;17.50;59.30
1468;DHT22;727;48.892;9.544;2024-03-08T13:44:35;16.90;61.10
1468;DHT22;727;48.892;9.544;2024-03-08T13:47:02;17.30;59.30
1468;DHT22;727;48.892;9.544;2024-03-08T13:49:30;17.30;58.90
1468;DHT22;727;48.892;9.544;2024-03-08T13:51:56;17.30;58.50
1468;DHT22;727;48.892;9.544;2024-03-08T13:54:24;17.30;58.30
1468;DHT22;727;48.892;9.544;2024-03-08T13:56:52;17.00;58.40
1468;DHT22;727;48.892;9.544;2024-03-08T13:59:21;16.60;59.00
1468;DHT22;727;48.892;9.544;2024-03-08T14:01:48;16.00;60.50
1468;DHT22;727;48.892;9.544;2024-03-08T14:04:15;15.40;63.40
1468;DHT22;727;48.892;9.544;2024-03-08T14:06:42;14.60;65.00
1468;DHT22;727;48.892;9.544;2024-03-08T14:09:10;14.30;66.00
1468;DHT22;727;48.892;9.544;2024-03-08T14:11:42;14.10;67.60
1468;DHT22;727;48.892;9.544;2024-03-08T14:14:09;14.00;67.50
1468;DHT22;727;48.892;9.544;2024-03-08T14:16:39;13.70;68.10
1468;DHT22;727;48.892;9.544;2024-03-08T14:19:05;13.30;69.40
1468;DHT22;727;48.892;9.544;2024-03-08T14:21:32;13.10;70.00
1468;DHT22;727;48.892;9.544;2024-03-08T14:23:59;13.00;70.60
1468;DHT22;727;48.892;9.544;2024-03-08T14:26:26;12.70;71.30
1468;DHT22;727;48.892;9.544;2024-03-08T14:28:53;12.80;71.30
1468;DHT22;727;48.892;9.544;2024-03-08T14:31:20;12.80;72.10
1468;DHT22;727;48.892;9.544;2024-03-08T14:33:52;12.90;72.90
1468;DHT22;727;48.892;9.544;2024-03-08T14:36:19;13.00;73.40
1468;DHT22;727;48.892;9.544;2024-03-08T14:38:46;13.10;74.10
1468;DHT22;727;48.892;9.544;2024-03-08T14:41:13;13.10;72.70
1468;DHT22;727;48.892;9.544;2024-03-08T14:43:42;12.90;73.50
1468;DHT22;727;48.892;9.544;2024-03-08T14:46:11;12.80;73.70
1468;DHT22;727;48.892;9.544;2024-03-08T14:48:42;12.60;74.60
1468;DHT22;727;48.892;9.544;2024-03-08T14:51:10;12.50;75.60
1468;DHT22;727;48.892;9.544;2024-03-08T14:53:40;12.40;74.90
1468;DHT22;727;48.892;9.544;2024-03-08T14:56:07;12.30;75.80
1468;DHT22;727;48.892;9.544;2024-03-08T14:58:34;12.30;75.80
1468;DHT22;727;48.892;9.544;2024-03-08T15:01:03;12.30;76.10
1468;DHT22;727;48.892;9.544;2024-03-08T15:03:35;12.20;76.00
1468;DHT22;727;48.892;9.544;2024-03-08T15:06:02;12.40;76.10
1468;DHT22;727;48.892;9.544;2024-03-08T15:08:34;12.40;75.70
1468;DHT22;727;48.892;9.544;2024-03-08T15:11:01;12.40;75.60
1468;DHT22;727;48.892;9.544;2024-03-08T15:13:28;12.30;76.20
1468;DHT22;727;48.892;9.544;2024-03-08T15:16:05;12.30;76.40
1468;DHT22;727;48.892;9.544;2024-03-08T15:18:32;12.30;76.50
1468;DHT22;727;48.892;9.544;2024-03-08T15:21:02;12.20;76.00
1468;DHT22;727;48.892;9.544;2024-03-08T15:23:32;12.20;76.20
1468;DHT22;727;48.892;9.544;2024-03-08T15:26:00;12.20;76.30
1468;DHT22;727;48.892;9.544;2024-03-08T15:28:27;12.20;76.00
1468;DHT22;727;48.892;9.544;2024-03-08T15:30:59;12.10;76.10
1468;DHT22;727;48.892;9.544;2024-03-08T15:33:30;12.10;75.90
1468;DHT22;727;48.892;9.544;2024-03-08T15:35:57;12.20;76.60
1468;DHT22;727;48.892;9.544;2024-03-08T15:38:26;12.10;77.00
1468;DHT22;727;48.892;9.544;2024-03-08T15:40:53;12.10;77.00
1468;DHT22;727;48.892;9.544;2024-03-08T15:43:21;12.30;76.90
1468;DHT22;727;48.892;9.544;2024-03-08T15:45:49;12.20;76.70
1468;DHT22;727;48.892;9.544;2024-03-08T15:48:16;12.10;77.10
1468;DHT22;727;48.892;9.544;2024-03-08T15:50:43;12.10;77.30
1468;DHT22;727;48.892;9.544;2024-03-08T15:53:09;12.00;77.00
1468;DHT22;727;48.892;9.544;2024-03-08T15:55:37;11.90;77.00
1468;DHT22;727;48.892;9.544;2024-03-08T15:58:06;11.80;77.50
1468;DHT22;727;48.892;9.544;2024-03-08T16:00:34;11.70;77.10
1468;DHT22;727;48.892;9.544;2024-03-08T16:03:02;11.60;77.60
1468;DHT22;727;48.892;9.544;2024-03-08T16:05:32;11.50;77.40
1468;DHT22;727;48.892;9.544;2024-03-08T16:08:00;11.40;77.20
1468;DHT22;727;48.892;9.544;2024-03-08T16:10:28;11.40;77.30
1468;DHT22;727;48.892;9.544;2024-03-08T16:12:55;11.30;78.20
1468;DHT22;727;48.892;9.544;2024-03-08T16:15:21;11.20;78.30
1468;DHT22;727;48.892;9.544;2024-03-08T16:17:49;11.20;78.20
1468;DHT22;727;48.892;9.544;2024-03-08T16:20:16;11.10;78.80
1468;DHT22;727;48.892;9.544;2024-03-08T16:22:45;11.10;79.20
1468;DHT22;727;48.892;9.544;2024-03-08T16:25:12;10.90;79.20
1468;DHT22;727;48.892;9.544;2024-03-08T16:27:39;10.90;79.90
1468;DHT22;727;48.892;9.544;2024-03-08T16:30:07;10.80;80.00
1468;DHT22;727;48.892;9.544;2024-03-08T16:32:36;10.70;80.80
1468;DHT22;727;48.892;9.544;2024-03-08T16:35:05;10.60;80.60
1468;DHT22;727;48.892;9.544;2024-03-08T16:37:36;10.50;80.70